TAF Text Data
IDs:
Format:
Raw Decoded Include METAR

Data at: 1455 UTC 19 Aug 2019

TAF for:KAUS (Austin/Bergstrom Int, TX, US) issued at 1120 UTC 19 Aug 2019
Text:KAUS 191120Z 1912/2018 18006KT P6SM FEW025
Forecast period:1200 to 1600 UTC 19 August 2019
Forecast type:FROM: standard forecast or significant change
Winds:from the S (180 degrees) at 7 MPH (6 knots; 3.1 m/s)
Visibility:6 or more sm (10+ km)
Ceiling:at least 12,000 feet AGL
Clouds: few clouds at 2500 feet AGL
Text:FM191600 17014KT P6SM SCT040
Forecast period:1600 UTC 19 August 2019 to 0000 UTC 20 August 2019
Forecast type:FROM: standard forecast or significant change
Winds:from the S (170 degrees) at 16 MPH (14 knots; 7.2 m/s)
Visibility:6 or more sm (10+ km)
Ceiling:at least 12,000 feet AGL
Clouds: scattered clouds at 4000 feet AGL
Text:FM200000 15010KT P6SM FEW100
Forecast period:0000 to 0700 UTC 20 August 2019
Forecast type:FROM: standard forecast or significant change
Winds:from the SSE (150 degrees) at 12 MPH (10 knots; 5.1 m/s)
Visibility:6 or more sm (10+ km)
Ceiling:at least 12,000 feet AGL
Clouds: few clouds at 10000 feet AGL
Text:FM200700 18004KT P6SM SCT025
Forecast period:0700 to 1800 UTC 20 August 2019
Forecast type:FROM: standard forecast or significant change
Winds:from the S (180 degrees) at 5 MPH (4 knots; 2.1 m/s)
Visibility:6 or more sm (10+ km)
Ceiling:at least 12,000 feet AGL
Clouds: scattered clouds at 2500 feet AGL